Time;durP1;ratioP1;P1;durP2;ratioP2;P2;SDS_P1;SDS_P2;PMS_P1;PMS_P2;Temp;Humidity;BMP_temperature;BMP_pressure;BME280_temperature;BME280_humidity;BME280_pressure;Samples;Min_cycle;Max_cycle;Signal;HPM_P1;HPM_P2
2024/02/25 00:01:25;;;;;;;7.43;4.00;;;;;;;;;;4996169;28;20113;-75
2024/02/25 00:03:50;;;;;;;8.55;5.00;;;;;;;;;;4993587;28;20105;-75
2024/02/25 00:06:15;;;;;;;7.47;3.85;;;;;;;;;;4991905;28;20108;-74
2024/02/25 00:08:41;;;;;;;7.40;3.92;;;;;;;;;;4991990;28;20062;-75
2024/02/25 00:11:06;;;;;;;7.85;4.30;;;;;;;;;;4991238;28;20026;-75
2024/02/25 00:13:31;;;;;;;8.05;4.05;;;;;;;;;;4990733;28;20018;-73
2024/02/25 00:15:56;;;;;;;8.02;4.25;;;;;;;;;;4991855;28;20109;-74
2024/02/25 00:18:21;;;;;;;7.03;3.97;;;;;;;;;;4991691;28;20037;-75
2024/02/25 00:20:47;;;;;;;8.73;4.07;;;;;;;;;;4991030;28;20030;-74
2024/02/25 00:23:12;;;;;;;7.97;3.53;;;;;;;;;;4992673;28;20034;-74
2024/02/25 00:25:37;;;;;;;8.32;4.18;;;;;;;;;;4991419;28;20084;-75
2024/02/25 00:28:02;;;;;;;8.52;4.68;;;;;;;;;;4991456;28;20038;-75
2024/02/25 00:30:28;;;;;;;7.85;4.22;;;;;;;;;;5002910;28;20102;-75
2024/02/25 00:32:53;;;;;;;7.22;3.83;;;;;;;;;;4992492;28;20034;-74
2024/02/25 00:35:19;;;;;;;9.00;4.68;;;;;;;;;;4991106;28;20041;-75
2024/02/25 00:37:44;;;;;;;8.38;4.65;;;;;;;;;;4990129;28;20026;-74
2024/02/25 00:40:10;;;;;;;8.05;4.75;;;;;;;;;;4991019;28;20440;-75
2024/02/25 00:42:35;;;;;;;7.53;3.88;;;;;;;;;;4990881;28;20038;-74
2024/02/25 00:45:00;;;;;;;8.98;4.80;;;;;;;;;;4990951;28;20034;-74
2024/02/25 00:47:26;;;;;;;8.60;4.43;;;;;;;;;;4991290;28;20110;-74
2024/02/25 00:49:51;;;;;;;7.85;5.13;;;;;;;;;;4990962;28;20034;-75
2024/02/25 00:52:16;;;;;;;7.97;4.45;;;;;;;;;;4991052;28;20027;-74
2024/02/25 00:54:45;;;;;;;9.90;4.38;;;;;;;;;;4990998;28;20062;-74
2024/02/25 00:57:10;;;;;;;9.70;5.57;;;;;;;;;;4991065;28;20503;-74
2024/02/25 00:59:35;;;;;;;7.75;4.43;;;;;;;;;;4990856;28;20069;-74
2024/02/25 01:02:02;;;;;;;7.97;4.28;;;;;;;;;;4991662;28;20058;-74
2024/02/25 01:04:27;;;;;;;8.75;4.80;;;;;;;;;;4990811;28;20031;-75
2024/02/25 01:06:52;;;;;;;9.27;4.82;;;;;;;;;;4990929;28;20052;-74
2024/02/25 01:09:18;;;;;;;9.43;4.82;;;;;;;;;;4992101;28;20091;-75
2024/02/25 01:11:44;;;;;;;9.63;5.00;;;;;;;;;;4989180;28;20113;-75
2024/02/25 01:14:10;;;;;;;8.43;4.72;;;;;;;;;;4990479;28;20117;-75
2024/02/25 01:16:37;;;;;;;7.88;4.18;;;;;;;;;;4990901;28;20034;-73
2024/02/25 01:19:02;;;;;;;7.85;3.95;;;;;;;;;;4990436;28;20058;-73
2024/02/25 01:21:27;;;;;;;9.27;4.22;;;;;;;;;;4990322;28;20050;-74
2024/02/25 01:23:53;;;;;;;7.55;4.07;;;;;;;;;;4993115;28;20475;-74
2024/02/25 01:26:18;;;;;;;7.22;4.13;;;;;;;;;;4990043;28;20035;-74
2024/02/25 01:28:43;;;;;;;6.57;4.07;;;;;;;;;;4990745;28;20042;-75
2024/02/25 01:31:08;;;;;;;7.13;4.03;;;;;;;;;;4990119;28;20039;-74
2024/02/25 01:33:34;;;;;;;8.82;4.32;;;;;;;;;;4990914;28;20023;-75
2024/02/25 01:35:59;;;;;;;7.55;3.83;;;;;;;;;;4990770;28;20507;-75
2024/02/25 01:38:24;;;;;;;8.32;4.57;;;;;;;;;;4989110;28;20033;-74
2024/02/25 01:40:49;;;;;;;8.65;4.47;;;;;;;;;;4990077;28;20030;-75
2024/02/25 01:43:15;;;;;;;7.93;4.57;;;;;;;;;;4990410;28;20030;-74
2024/02/25 01:45:41;;;;;;;6.60;3.60;;;;;;;;;;4990422;28;20096;-74
2024/02/25 01:48:07;;;;;;;7.18;3.92;;;;;;;;;;4990260;28;20117;-74
2024/02/25 01:50:33;;;;;;;9.43;4.60;;;;;;;;;;4990279;28;20029;-74
2024/02/25 01:52:59;;;;;;;7.53;3.85;;;;;;;;;;4990121;28;20034;-74
2024/02/25 01:55:25;;;;;;;6.57;3.50;;;;;;;;;;4990260;28;20035;-74
2024/02/25 01:57:50;;;;;;;7.15;3.30;;;;;;;;;;4990554;28;20038;-74
2024/02/25 02:00:17;;;;;;;10.20;3.97;;;;;;;;;;4990015;28;20030;-74
2024/02/25 02:02:42;;;;;;;7.53;3.75;;;;;;;;;;4990053;28;20105;-74
2024/02/25 02:05:08;;;;;;;9.43;3.95;;;;;;;;;;4990071;28;20141;-74
2024/02/25 02:07:33;;;;;;;8.05;4.05;;;;;;;;;;4990397;28;20022;-75
2024/02/25 02:09:58;;;;;;;7.97;4.20;;;;;;;;;;4990243;28;20495;-74
2024/02/25 02:12:23;;;;;;;6.57;4.10;;;;;;;;;;4989812;28;20102;-74
2024/02/25 02:14:49;;;;;;;7.85;3.72;;;;;;;;;;4990244;28;20034;-75
2024/02/25 02:17:14;;;;;;;6.50;3.90;;;;;;;;;;4990071;28;20125;-74
2024/02/25 02:19:44;;;;;;;7.22;3.38;;;;;;;;;;4990214;28;20034;-75
2024/02/25 02:22:09;;;;;;;6.55;4.07;;;;;;;;;;4989750;28;20450;-75
2024/02/25 02:24:34;;;;;;;8.73;4.20;;;;;;;;;;4990145;28;20042;-73
2024/02/25 02:26:59;;;;;;;8.80;3.70;;;;;;;;;;4990236;28;20057;-75
2024/02/25 02:29:25;;;;;;;8.95;3.45;;;;;;;;;;4988294;28;20052;-74
2024/02/25 02:31:50;;;;;;;6.03;3.42;;;;;;;;;;4989630;28;20030;-74
2024/02/25 02:34:15;;;;;;;6.13;3.88;;;;;;;;;;4989842;28;20070;-74
2024/02/25 02:36:41;;;;;;;6.32;3.47;;;;;;;;;;4995529;28;20031;-75
2024/02/25 02:39:06;;;;;;;8.75;3.70;;;;;;;;;;4990723;28;20031;-74
2024/02/25 02:41:32;;;;;;;7.78;4.00;;;;;;;;;;4993272;28;20365;-75
2024/02/25 02:43:57;;;;;;;7.18;3.53;;;;;;;;;;4993294;28;20109;-74
2024/02/25 02:46:22;;;;;;;8.35;3.50;;;;;;;;;;4993280;28;20034;-73
2024/02/25 02:48:47;;;;;;;7.60;3.53;;;;;;;;;;4993451;28;20037;-75
2024/02/25 02:51:13;;;;;;;6.78;3.78;;;;;;;;;;4992670;28;20026;-74
2024/02/25 02:53:38;;;;;;;7.88;3.40;;;;;;;;;;4992453;28;20034;-75
2024/02/25 02:56:03;;;;;;;6.45;3.25;;;;;;;;;;4993216;28;20035;-74
2024/02/25 02:58:28;;;;;;;7.65;3.83;;;;;;;;;;4993230;28;20045;-74
2024/02/25 03:00:54;;;;;;;9.32;3.90;;;;;;;;;;4993115;28;20037;-74
2024/02/25 03:03:19;;;;;;;6.22;3.20;;;;;;;;;;4994741;28;20030;-74
2024/02/25 03:05:44;;;;;;;7.38;3.42;;;;;;;;;;4992998;28;20026;-75
2024/02/25 03:08:09;;;;;;;7.03;3.72;;;;;;;;;;4993011;28;20026;-74
2024/02/25 03:10:36;;;;;;;7.53;3.85;;;;;;;;;;4992596;28;20034;-74
2024/02/25 03:13:01;;;;;;;5.95;3.42;;;;;;;;;;4992963;28;20537;-74
2024/02/25 03:15:26;;;;;;;7.45;3.55;;;;;;;;;;4991380;28;20023;-74
2024/02/25 03:17:51;;;;;;;6.50;3.38;;;;;;;;;;4989579;28;20507;-74
2024/02/25 03:20:19;;;;;;;6.00;3.13;;;;;;;;;;4992582;28;20503;-74
2024/02/25 03:22:44;;;;;;;6.88;3.42;;;;;;;;;;4995864;28;20038;-74
2024/02/25 03:25:09;;;;;;;6.93;3.70;;;;;;;;;;4992563;28;20038;-74
2024/02/25 03:27:36;;;;;;;6.90;3.03;;;;;;;;;;4997190;28;20026;-75
2024/02/25 03:30:04;;;;;;;5.10;2.55;;;;;;;;;;4992652;28;20026;-75
2024/02/25 03:32:29;;;;;;;6.78;3.22;;;;;;;;;;4992904;28;20037;-74
2024/02/25 03:34:54;;;;;;;6.57;3.47;;;;;;;;;;4994023;28;20034;-74
2024/02/25 03:37:19;;;;;;;6.28;3.00;;;;;;;;;;4992505;28;20043;-74
2024/02/25 03:39:44;;;;;;;7.07;3.10;;;;;;;;;;4992448;28;20037;-74
2024/02/25 03:42:10;;;;;;;6.63;3.03;;;;;;;;;;4991946;28;20453;-74
2024/02/25 03:44:36;;;;;;;6.20;3.08;;;;;;;;;;4992272;28;20470;-74
2024/02/25 03:47:02;;;;;;;5.97;3.03;;;;;;;;;;4992299;28;20043;-75
2024/02/25 03:49:27;;;;;;;6.55;4.00;;;;;;;;;;4992041;28;20057;-75
2024/02/25 03:51:52;;;;;;;7.93;3.67;;;;;;;;;;4993091;28;20107;-74
2024/02/25 03:54:17;;;;;;;8.80;4.05;;;;;;;;;;4991939;28;20490;-74
2024/02/25 03:56:42;;;;;;;6.95;3.50;;;;;;;;;;4992324;28;20053;-74
2024/02/25 03:59:07;;;;;;;7.15;3.30;;;;;;;;;;4991834;28;20495;-75
2024/02/25 04:01:33;;;;;;;8.60;3.58;;;;;;;;;;4991501;28;20030;-75
2024/02/25 04:03:58;;;;;;;6.93;3.08;;;;;;;;;;4991872;28;20041;-74
2024/02/25 04:06:24;;;;;;;5.47;2.60;;;;;;;;;;4991927;28;20545;-75
2024/02/25 04:08:49;;;;;;;6.95;3.20;;;;;;;;;;5000934;28;20539;-74
2024/02/25 04:11:14;;;;;;;5.85;3.05;;;;;;;;;;4991145;28;20121;-74
2024/02/25 04:13:39;;;;;;;5.45;3.03;;;;;;;;;;4991630;28;20037;-74
2024/02/25 04:16:04;;;;;;;5.85;2.88;;;;;;;;;;4991683;28;20426;-74
2024/02/25 04:18:30;;;;;;;7.22;3.17;;;;;;;;;;4991835;28;20117;-74
2024/02/25 04:20:55;;;;;;;5.55;3.17;;;;;;;;;;4991208;28;20509;-75
2024/02/25 04:23:21;;;;;;;6.70;3.20;;;;;;;;;;4988621;28;20034;-74
2024/02/25 04:25:46;;;;;;;6.60;2.83;;;;;;;;;;4989113;28;20030;-74
2024/02/25 04:28:12;;;;;;;5.80;3.05;;;;;;;;;;4991440;28;20037;-75
2024/02/25 04:30:37;;;;;;;5.50;2.88;;;;;;;;;;4987080;28;20023;-74
2024/02/25 04:33:02;;;;;;;6.65;3.30;;;;;;;;;;4991580;28;20427;-75
2024/02/25 04:35:28;;;;;;;6.93;3.15;;;;;;;;;;4991174;28;20030;-74
2024/02/25 04:37:53;;;;;;;6.32;3.45;;;;;;;;;;4991468;28;20034;-74
2024/02/25 04:40:18;;;;;;;6.28;2.95;;;;;;;;;;4991046;28;20085;-74
2024/02/25 04:42:44;;;;;;;5.75;2.97;;;;;;;;;;4994217;28;20026;-75
2024/02/25 04:45:09;;;;;;;6.57;2.92;;;;;;;;;;4990882;28;20037;-75
2024/02/25 04:47:34;;;;;;;6.75;3.25;;;;;;;;;;4991211;28;20045;-74
2024/02/25 04:50:00;;;;;;;5.50;2.78;;;;;;;;;;4982859;28;20030;-74
2024/02/25 04:52:25;;;;;;;5.05;2.63;;;;;;;;;;4990676;28;20031;-75
2024/02/25 04:54:50;;;;;;;6.15;3.20;;;;;;;;;;4991137;28;20027;-74
2024/02/25 04:57:15;;;;;;;6.20;2.53;;;;;;;;;;4990914;28;20038;-75
2024/02/25 04:59:41;;;;;;;6.47;3.08;;;;;;;;;;4992880;28;20040;-74
2024/02/25 05:02:06;;;;;;;7.70;3.50;;;;;;;;;;4990506;28;20111;-75
2024/02/25 05:04:31;;;;;;;6.95;3.47;;;;;;;;;;4990808;28;20038;-74
2024/02/25 05:06:57;;;;;;;7.82;3.45;;;;;;;;;;4990928;28;20581;-74
2024/02/25 05:09:22;;;;;;;7.30;3.53;;;;;;;;;;4990749;28;20034;-74
2024/02/25 05:11:47;;;;;;;6.18;3.53;;;;;;;;;;4989733;28;20030;-75
2024/02/25 05:14:13;;;;;;;5.40;3.05;;;;;;;;;;4989970;28;20494;-74
2024/02/25 05:16:38;;;;;;;6.40;3.13;;;;;;;;;;4991014;28;20030;-75
2024/02/25 05:19:03;;;;;;;8.57;3.80;;;;;;;;;;4990700;28;20073;-74
2024/02/25 05:21:30;;;;;;;7.47;3.40;;;;;;;;;;4990208;28;20406;-75
2024/02/25 05:23:57;;;;;;;7.10;3.22;;;;;;;;;;4990243;28;20066;-74
2024/02/25 05:26:22;;;;;;;5.38;3.05;;;;;;;;;;4989256;28;20034;-74
2024/02/25 05:28:47;;;;;;;5.03;2.70;;;;;;;;;;4990677;28;20516;-75
2024/02/25 05:31:13;;;;;;;6.00;2.92;;;;;;;;;;4990228;28;20081;-75
2024/02/25 05:33:38;;;;;;;8.43;3.92;;;;;;;;;;4994022;28;20038;-74
2024/02/25 05:36:03;;;;;;;7.68;3.50;;;;;;;;;;4991827;28;20084;-75
2024/02/25 05:38:29;;;;;;;7.05;3.70;;;;;;;;;;4990486;28;20041;-75
2024/02/25 05:40:54;;;;;;;8.02;4.03;;;;;;;;;;4988695;28;20117;-74
2024/02/25 05:43:19;;;;;;;6.45;2.88;;;;;;;;;;4990465;28;20506;-74
2024/02/25 05:45:44;;;;;;;6.78;3.33;;;;;;;;;;4990722;28;20028;-74
2024/02/25 05:48:09;;;;;;;7.30;3.97;;;;;;;;;;4990443;28;20049;-74
2024/02/25 05:50:35;;;;;;;5.95;3.33;;;;;;;;;;4989995;28;20060;-73
2024/02/25 05:53:00;;;;;;;6.55;3.50;;;;;;;;;;4990444;28;20491;-75
2024/02/25 05:55:25;;;;;;;10.30;4.40;;;;;;;;;;4993525;28;20026;-74
2024/02/25 05:57:50;;;;;;;6.80;3.17;;;;;;;;;;4990550;28;20089;-74
2024/02/25 06:00:16;;;;;;;8.13;4.10;;;;;;;;;;4990038;28;20042;-74
2024/02/25 06:02:45;;;;;;;7.95;3.97;;;;;;;;;;4990014;28;20035;-75
2024/02/25 06:05:13;;;;;;;6.88;3.30;;;;;;;;;;4990054;28;20041;-74
2024/02/25 06:07:38;;;;;;;7.80;3.88;;;;;;;;;;4990384;28;20026;-74
2024/02/25 06:10:03;;;;;;;8.15;4.55;;;;;;;;;;4990222;28;20030;-74
2024/02/25 06:12:31;;;;;;;8.00;4.32;;;;;;;;;;4991340;28;20040;-74
2024/02/25 06:14:56;;;;;;;9.32;4.53;;;;;;;;;;4990377;28;20026;-75
2024/02/25 06:17:21;;;;;;;8.00;3.83;;;;;;;;;;4994065;28;20113;-74
2024/02/25 06:19:48;;;;;;;8.98;4.95;;;;;;;;;;4992308;28;20035;-74
2024/02/25 06:22:13;;;;;;;9.07;4.20;;;;;;;;;;4991133;28;20446;-74
2024/02/25 06:24:38;;;;;;;7.60;4.13;;;;;;;;;;4993647;28;20097;-74
2024/02/25 06:27:03;;;;;;;7.45;4.28;;;;;;;;;;4993976;28;20117;-74
2024/02/25 06:29:28;;;;;;;8.40;4.38;;;;;;;;;;4993626;28;20026;-75
2024/02/25 06:31:56;;;;;;;9.25;4.40;;;;;;;;;;4993336;28;20068;-75
2024/02/25 06:34:21;;;;;;;8.00;4.43;;;;;;;;;;4993378;28;20058;-74
2024/02/25 06:36:47;;;;;;;8.43;4.15;;;;;;;;;;4993847;28;20057;-74
2024/02/25 06:39:12;;;;;;;8.38;4.68;;;;;;;;;;4993359;28;20491;-73
2024/02/25 06:41:37;;;;;;;8.60;4.40;;;;;;;;;;4993063;28;20026;-74
2024/02/25 06:44:03;;;;;;;9.35;4.68;;;;;;;;;;4993423;28;20038;-74
2024/02/25 06:46:28;;;;;;;8.65;4.18;;;;;;;;;;4993388;28;20034;-73
2024/02/25 06:48:53;;;;;;;7.38;4.47;;;;;;;;;;4993512;28;20061;-74
2024/02/25 06:51:27;;;;;;;8.80;4.95;;;;;;;;;;4992710;28;20084;-75
2024/02/25 06:53:53;;;;;;;7.72;3.83;;;;;;;;;;4993033;28;20057;-74
2024/02/25 06:56:18;;;;;;;7.28;4.05;;;;;;;;;;4993266;28;20072;-74
2024/02/25 06:58:44;;;;;;;8.27;3.88;;;;;;;;;;4993251;28;20117;-75
2024/02/25 07:01:10;;;;;;;9.95;4.90;;;;;;;;;;4992458;28;20498;-75
2024/02/25 07:03:35;;;;;;;8.00;3.95;;;;;;;;;;4994695;28;20042;-74
2024/02/25 07:06:00;;;;;;;9.02;4.93;;;;;;;;;;4993265;28;20034;-75
2024/02/25 07:08:25;;;;;;;6.93;3.85;;;;;;;;;;4988254;28;20120;-75
2024/02/25 07:10:52;;;;;;;8.27;4.22;;;;;;;;;;4991919;28;20022;-73
2024/02/25 07:13:17;;;;;;;8.88;4.55;;;;;;;;;;4992870;28;20038;-74
2024/02/25 07:15:43;;;;;;;8.55;4.68;;;;;;;;;;4992886;28;20038;-74
2024/02/25 07:18:08;;;;;;;9.20;4.50;;;;;;;;;;4992982;28;20549;-74
2024/02/25 07:20:33;;;;;;;9.18;4.60;;;;;;;;;;4992749;28;20030;-75
2024/02/25 07:22:58;;;;;;;8.30;4.20;;;;;;;;;;4991881;28;20042;-74
2024/02/25 07:25:23;;;;;;;7.38;4.40;;;;;;;;;;4992586;28;20057;-75
2024/02/25 07:27:48;;;;;;;8.63;4.55;;;;;;;;;;4988832;28;20065;-74
2024/02/25 07:30:16;;;;;;;8.38;4.90;;;;;;;;;;4992401;28;20110;-74
2024/02/25 07:32:41;;;;;;;6.93;3.75;;;;;;;;;;4996186;28;20030;-74
2024/02/25 07:35:06;;;;;;;9.20;5.32;;;;;;;;;;4992541;28;20030;-75
2024/02/25 07:37:31;;;;;;;10.25;5.13;;;;;;;;;;4992333;28;20030;-74
2024/02/25 07:39:57;;;;;;;7.18;3.95;;;;;;;;;;4992454;28;20042;-74
2024/02/25 07:42:22;;;;;;;7.38;4.53;;;;;;;;;;4992045;28;20037;-75
2024/02/25 07:44:47;;;;;;;9.77;4.78;;;;;;;;;;4991003;28;20030;-74
2024/02/25 07:47:12;;;;;;;6.38;3.90;;;;;;;;;;4992282;28;20384;-75
2024/02/25 07:49:37;;;;;;;8.40;4.35;;;;;;;;;;4992146;28;20030;-74
2024/02/25 07:52:03;;;;;;;9.95;4.78;;;;;;;;;;4992173;28;20237;-75
2024/02/25 07:54:28;;;;;;;9.30;4.25;;;;;;;;;;4994997;28;20034;-75
2024/02/25 07:56:53;;;;;;;7.60;4.38;;;;;;;;;;4992284;28;20034;-74
2024/02/25 07:59:19;;;;;;;10.00;4.68;;;;;;;;;;4991822;28;20034;-75
2024/02/25 08:01:44;;;;;;;7.85;4.85;;;;;;;;;;4991700;28;20084;-75
2024/02/25 08:04:09;;;;;;;8.23;4.35;;;;;;;;;;4990514;28;20030;-74
2024/02/25 08:06:35;;;;;;;7.25;3.80;;;;;;;;;;4992034;28;20483;-74
2024/02/25 08:09:00;;;;;;;7.03;4.75;;;;;;;;;;4991878;28;20046;-75
2024/02/25 08:11:25;;;;;;;7.57;4.35;;;;;;;;;;4991180;28;20042;-74
2024/02/25 08:13:51;;;;;;;7.55;4.07;;;;;;;;;;4991700;28;20076;-75
2024/02/25 08:16:16;;;;;;;7.07;3.83;;;;;;;;;;4990106;28;20038;-74
2024/02/25 08:18:45;;;;;;;6.88;4.32;;;;;;;;;;4991852;28;20734;-74
2024/02/25 08:21:11;;;;;;;9.25;5.40;;;;;;;;;;4991044;28;20038;-75
2024/02/25 08:23:36;;;;;;;7.95;4.55;;;;;;;;;;4991472;28;20044;-75
2024/02/25 08:26:02;;;;;;;7.25;4.40;;;;;;;;;;4991793;28;20070;-75
2024/02/25 08:28:28;;;;;;;7.55;5.03;;;;;;;;;;4991423;28;20046;-74
2024/02/25 08:30:54;;;;;;;6.22;4.03;;;;;;;;;;4991031;28;20076;-74
2024/02/25 08:33:19;;;;;;;10.35;4.57;;;;;;;;;;4991414;28;20034;-75
2024/02/25 08:35:44;;;;;;;9.35;4.38;;;;;;;;;;4990591;28;20193;-75
2024/02/25 08:38:09;;;;;;;12.13;6.97;;;;;;;;;;4991201;28;20096;-75
2024/02/25 08:40:34;;;;;;;8.50;4.65;;;;;;;;;;4991311;28;20041;-74
2024/02/25 08:43:00;;;;;;;10.48;5.78;;;;;;;;;;4991323;28;20443;-74
2024/02/25 08:45:25;;;;;;;7.75;4.60;;;;;;;;;;4991021;28;20053;-75
2024/02/25 08:47:50;;;;;;;7.57;4.63;;;;;;;;;;5000880;28;20030;-74
2024/02/25 08:50:15;;;;;;;8.80;5.05;;;;;;;;;;4990927;28;20126;-75
2024/02/25 08:52:41;;;;;;;9.05;4.30;;;;;;;;;;4990705;28;20081;-75
2024/02/25 08:55:07;;;;;;;8.25;5.00;;;;;;;;;;4991098;28;20105;-74
2024/02/25 08:57:32;;;;;;;7.20;4.63;;;;;;;;;;4990964;28;20114;-74
2024/02/25 08:59:57;;;;;;;6.72;4.28;;;;;;;;;;4990886;28;20088;-75
2024/02/25 09:02:22;;;;;;;8.15;4.50;;;;;;;;;;4990558;28;20042;-75
2024/02/25 09:04:47;;;;;;;7.88;4.68;;;;;;;;;;4990766;28;20078;-75
2024/02/25 09:07:14;;;;;;;7.60;4.53;;;;;;;;;;4990758;28;20038;-75
2024/02/25 09:09:39;;;;;;;7.78;4.30;;;;;;;;;;4990853;28;20100;-75
2024/02/25 09:12:04;;;;;;;7.43;4.63;;;;;;;;;;4990535;28;20030;-75
2024/02/25 09:14:29;;;;;;;6.93;3.67;;;;;;;;;;4990688;28;20478;-74
2024/02/25 09:16:55;;;;;;;6.28;4.03;;;;;;;;;;4990945;28;20041;-75
2024/02/25 09:19:20;;;;;;;8.70;4.53;;;;;;;;;;4990694;28;20487;-75
2024/02/25 09:21:47;;;;;;;5.97;3.57;;;;;;;;;;4988916;28;20042;-75
2024/02/25 09:24:12;;;;;;;7.80;4.00;;;;;;;;;;4990380;28;20312;-75
2024/02/25 09:26:37;;;;;;;6.90;4.18;;;;;;;;;;4990940;28;20065;-75
2024/02/25 09:29:02;;;;;;;6.13;3.67;;;;;;;;;;4990694;28;20043;-74
2024/02/25 09:31:28;;;;;;;6.93;3.70;;;;;;;;;;4989982;28;20101;-74
2024/02/25 09:33:54;;;;;;;6.80;4.50;;;;;;;;;;4992893;28;20031;-75
2024/02/25 09:36:23;;;;;;;6.78;3.60;;;;;;;;;;4995763;28;20030;-75
2024/02/25 09:38:52;;;;;;;6.65;4.00;;;;;;;;;;4989469;28;20041;-74
2024/02/25 09:41:29;;;;;;;7.47;4.63;;;;;;;;;;4989875;28;20483;-75
2024/02/25 09:43:55;;;;;;;6.93;3.80;;;;;;;;;;4990497;28;20553;-75
2024/02/25 09:46:21;;;;;;;6.95;4.15;;;;;;;;;;4991876;28;20042;-75
2024/02/25 09:48:51;;;;;;;6.43;3.72;;;;;;;;;;4994400;28;20113;-75
2024/02/25 09:51:17;;;;;;;7.53;3.50;;;;;;;;;;4991295;28;20133;-74
2024/02/25 09:53:43;;;;;;;8.20;3.40;;;;;;;;;;4994176;28;20062;-75
2024/02/25 09:56:09;;;;;;;7.10;3.65;;;;;;;;;;4994460;28;20034;-75
2024/02/25 09:58:34;;;;;;;5.07;2.80;;;;;;;;;;4995544;28;20113;-75
2024/02/25 10:00:59;;;;;;;6.90;3.17;;;;;;;;;;4993685;28;20117;-75
2024/02/25 10:03:25;;;;;;;6.25;3.15;;;;;;;;;;4993890;28;20088;-75
2024/02/25 10:05:53;;;;;;;6.07;3.10;;;;;;;;;;4994099;28;20488;-75
2024/02/25 10:08:18;;;;;;;6.13;2.65;;;;;;;;;;4994115;28;20038;-75
2024/02/25 10:10:43;;;;;;;5.10;2.70;;;;;;;;;;4993689;28;20471;-74
2024/02/25 10:13:09;;;;;;;5.55;2.78;;;;;;;;;;4994195;28;20042;-75
2024/02/25 10:15:34;;;;;;;5.22;2.92;;;;;;;;;;4993831;28;20026;-75
2024/02/25 10:17:59;;;;;;;6.93;2.80;;;;;;;;;;4994067;28;20038;-75
2024/02/25 10:20:25;;;;;;;6.18;2.92;;;;;;;;;;4993295;28;20056;-75
2024/02/25 10:23:06;;;;;;;5.78;2.75;;;;;;;;;;4991886;28;20406;-75
2024/02/25 10:25:32;;;;;;;6.32;2.78;;;;;;;;;;4993274;28;20470;-75
2024/02/25 10:28:13;;;;;;;5.70;2.83;;;;;;;;;;4993925;28;20065;-74
2024/02/25 10:30:39;;;;;;;6.13;3.33;;;;;;;;;;4992048;28;20038;-75
2024/02/25 10:33:12;;;;;;;6.57;2.80;;;;;;;;;;4993739;28;20042;-75
2024/02/25 10:35:37;;;;;;;4.80;2.38;;;;;;;;;;4989841;28;20077;-75
2024/02/25 10:38:03;;;;;;;7.53;3.03;;;;;;;;;;4992575;28;20046;-75
2024/02/25 10:40:28;;;;;;;4.55;2.33;;;;;;;;;;4993397;28;20117;-75
2024/02/25 10:42:54;;;;;;;5.88;2.42;;;;;;;;;;4993322;28;20042;-74
2024/02/25 10:45:19;;;;;;;5.43;2.15;;;;;;;;;;4993272;28;20466;-75
2024/02/25 10:47:46;;;;;;;4.60;2.15;;;;;;;;;;4993566;28;20042;-75
2024/02/25 10:50:11;;;;;;;3.53;1.50;;;;;;;;;;4993298;28;20026;-74
2024/02/25 10:52:36;;;;;;;4.13;1.63;;;;;;;;;;4989918;28;20061;-75
2024/02/25 10:55:01;;;;;;;3.90;1.60;;;;;;;;;;4993280;28;20061;-74
2024/02/25 10:57:27;;;;;;;4.97;2.03;;;;;;;;;;4992580;28;20425;-75
2024/02/25 10:59:53;;;;;;;5.32;2.10;;;;;;;;;;4992371;28;20034;-75
2024/02/25 11:02:20;;;;;;;4.10;1.90;;;;;;;;;;4991362;28;20486;-75
2024/02/25 11:04:46;;;;;;;3.70;1.60;;;;;;;;;;4993151;28;20030;-75
2024/02/25 11:07:11;;;;;;;3.80;1.70;;;;;;;;;;4993231;28;20398;-75
2024/02/25 11:09:37;;;;;;;4.07;1.77;;;;;;;;;;4992497;28;20026;-75
2024/02/25 11:12:21;;;;;;;3.90;1.50;;;;;;;;;;4992763;28;20034;-75
2024/02/25 11:14:47;;;;;;;2.75;1.55;;;;;;;;;;4991680;28;20092;-75
2024/02/25 11:17:16;;;;;;;4.28;1.92;;;;;;;;;;4992886;28;20023;-74
2024/02/25 11:19:41;;;;;;;3.97;1.85;;;;;;;;;;4992868;28;20056;-75
2024/02/25 11:22:07;;;;;;;3.08;1.50;;;;;;;;;;4992587;28;20066;-75
2024/02/25 11:24:46;;;;;;;3.33;1.38;;;;;;;;;;4992474;28;20033;-75
2024/02/25 11:27:12;;;;;;;3.67;1.45;;;;;;;;;;4993141;28;20434;-75
2024/02/25 11:29:37;;;;;;;3.70;1.73;;;;;;;;;;4992053;28;20027;-74
2024/02/25 11:32:02;;;;;;;3.10;1.40;;;;;;;;;;4993691;28;20034;-75
2024/02/25 11:34:28;;;;;;;3.50;1.57;;;;;;;;;;4986524;28;20023;-75
2024/02/25 11:36:56;;;;;;;3.38;1.48;;;;;;;;;;4992784;28;20269;-75
2024/02/25 11:39:32;;;;;;;4.72;1.80;;;;;;;;;;4990219;28;20113;-75
2024/02/25 11:42:01;;;;;;;3.35;1.40;;;;;;;;;;4992199;28;20402;-75
2024/02/25 11:44:28;;;;;;;3.40;1.67;;;;;;;;;;4992250;28;20046;-75
2024/02/25 11:46:57;;;;;;;3.95;1.90;;;;;;;;;;4992505;28;20447;-75
2024/02/25 11:49:23;;;;;;;4.05;1.50;;;;;;;;;;4992043;28;20058;-75
2024/02/25 11:51:48;;;;;;;3.97;2.00;;;;;;;;;;4996764;28;20057;-74
2024/02/25 11:54:13;;;;;;;3.10;1.48;;;;;;;;;;4992005;28;20023;-75
2024/02/25 11:56:38;;;;;;;3.57;1.43;;;;;;;;;;4992357;28;20069;-75
2024/02/25 11:59:04;;;;;;;3.05;1.50;;;;;;;;;;4992307;28;20789;-75
2024/02/25 12:01:29;;;;;;;4.60;2.08;;;;;;;;;;4991599;28;20030;-75
2024/02/25 12:03:55;;;;;;;2.92;1.65;;;;;;;;;;4992068;28;20026;-75
2024/02/25 12:06:22;;;;;;;3.78;1.45;;;;;;;;;;4991900;28;20034;-75
2024/02/25 12:08:47;;;;;;;6.55;1.73;;;;;;;;;;4993334;28;20061;-75
2024/02/25 12:11:13;;;;;;;4.82;1.55;;;;;;;;;;4990744;28;20065;-75
2024/02/25 12:13:39;;;;;;;4.15;1.50;;;;;;;;;;4988045;28;20089;-75
2024/02/25 12:16:04;;;;;;;3.17;1.60;;;;;;;;;;4991945;28;20038;-75
2024/02/25 12:18:30;;;;;;;3.33;1.30;;;;;;;;;;4991815;28;20042;-74
2024/02/25 12:20:55;;;;;;;3.95;1.60;;;;;;;;;;4991177;28;20049;-75
2024/02/25 12:23:20;;;;;;;3.72;1.60;;;;;;;;;;4991645;28;20034;-75
2024/02/25 12:25:47;;;;;;;3.92;1.70;;;;;;;;;;4991614;28;20683;-75
2024/02/25 12:28:13;;;;;;;3.83;1.30;;;;;;;;;;4989342;28;20117;-75
2024/02/25 12:30:42;;;;;;;3.97;1.77;;;;;;;;;;4989760;28;20105;-75
2024/02/25 12:33:08;;;;;;;4.78;1.40;;;;;;;;;;4991667;28;20065;-74
2024/02/25 12:35:37;;;;;;;3.58;1.70;;;;;;;;;;4991088;28;20034;-74
2024/02/25 12:38:03;;;;;;;3.38;1.50;;;;;;;;;;4991672;28;20104;-75
2024/02/25 12:40:30;;;;;;;3.10;1.40;;;;;;;;;;4991230;28;20487;-75
2024/02/25 12:42:57;;;;;;;3.75;1.70;;;;;;;;;;4999845;28;20082;-75
2024/02/25 12:45:22;;;;;;;2.75;1.27;;;;;;;;;;4990976;28;20553;-75
2024/02/25 12:47:48;;;;;;;3.42;1.30;;;;;;;;;;4991351;28;20030;-75
2024/02/25 12:50:13;;;;;;;2.33;1.20;;;;;;;;;;4991041;28;20096;-74
2024/02/25 12:52:42;;;;;;;4.00;1.40;;;;;;;;;;4989450;28;20269;-77
2024/02/25 12:55:08;;;;;;;4.30;1.55;;;;;;;;;;4989751;28;20640;-74
2024/02/25 12:57:35;;;;;;;3.30;1.42;;;;;;;;;;4989868;28;20038;-75
2024/02/25 13:00:01;;;;;;;3.22;1.30;;;;;;;;;;4987384;28;20046;-75
2024/02/25 13:02:26;;;;;;;3.55;1.48;;;;;;;;;;4989435;28;20038;-75
2024/02/25 13:04:51;;;;;;;4.10;1.60;;;;;;;;;;4991880;28;20085;-75
2024/02/25 13:07:16;;;;;;;2.35;1.30;;;;;;;;;;4992910;28;20273;-74
2024/02/25 13:09:41;;;;;;;2.90;1.10;;;;;;;;;;4990865;28;20027;-74
2024/02/25 13:12:06;;;;;;;5.23;1.50;;;;;;;;;;4990656;28;20117;-75
2024/02/25 13:14:32;;;;;;;3.70;1.65;;;;;;;;;;4992980;28;20332;-74
2024/02/25 13:16:57;;;;;;;3.17;1.37;;;;;;;;;;4991067;28;20085;-74
2024/02/25 13:19:23;;;;;;;2.90;1.17;;;;;;;;;;4990521;28;20725;-75
2024/02/25 13:21:49;;;;;;;3.50;1.90;;;;;;;;;;4990011;28;20494;-75
2024/02/25 13:24:14;;;;;;;3.77;1.67;;;;;;;;;;4990624;28;20062;-75
2024/02/25 13:26:39;;;;;;;3.47;1.50;;;;;;;;;;4990856;28;20277;-75
2024/02/25 13:29:04;;;;;;;2.40;1.20;;;;;;;;;;4990522;28;20038;-75
2024/02/25 13:31:30;;;;;;;3.25;1.58;;;;;;;;;;4990255;28;20050;-74
2024/02/25 13:33:55;;;;;;;3.65;1.50;;;;;;;;;;4994625;28;20549;-75
2024/02/25 13:36:22;;;;;;;3.10;1.57;;;;;;;;;;4990606;28;20034;-74
2024/02/25 13:38:47;;;;;;;3.63;1.60;;;;;;;;;;4999891;28;20297;-74
2024/02/25 13:41:13;;;;;;;2.03;1.20;;;;;;;;;;4990072;28;20030;-75
2024/02/25 13:43:40;;;;;;;6.28;1.40;;;;;;;;;;4990121;28;20277;-75
2024/02/25 13:46:07;;;;;;;3.20;1.08;;;;;;;;;;4990744;28;20065;-76
2024/02/25 13:48:32;;;;;;;5.28;1.60;;;;;;;;;;4989096;28;20066;-75
2024/02/25 13:50:57;;;;;;;3.23;1.10;;;;;;;;;;4990048;28;20116;-75
2024/02/25 13:53:23;;;;;;;2.70;1.20;;;;;;;;;;4990268;28;20649;-75
2024/02/25 13:55:48;;;;;;;2.58;1.08;;;;;;;;;;4990480;28;20278;-75
2024/02/25 13:58:14;;;;;;;1.77;0.85;;;;;;;;;;4990444;28;20042;-75
2024/02/25 14:00:39;;;;;;;2.38;0.90;;;;;;;;;;4989786;28;20040;-76
2024/02/25 14:03:04;;;;;;;2.95;1.27;;;;;;;;;;4990408;28;20158;-76
2024/02/25 14:05:30;;;;;;;3.33;1.10;;;;;;;;;;4990109;28;20026;-75
2024/02/25 14:07:57;;;;;;;3.55;1.40;;;;;;;;;;4990393;28;20046;-75
2024/02/25 14:10:22;;;;;;;3.03;1.50;;;;;;;;;;4990037;28;20034;-76
2024/02/25 14:12:47;;;;;;;3.55;1.10;;;;;;;;;;4989950;28;20030;-75
2024/02/25 14:15:12;;;;;;;2.70;1.30;;;;;;;;;;4988942;28;20041;-75
2024/02/25 14:17:38;;;;;;;3.28;1.20;;;;;;;;;;4990810;28;20045;-75
2024/02/25 14:20:10;;;;;;;2.50;1.20;;;;;;;;;;4990108;28;20042;-75
2024/02/25 14:22:36;;;;;;;3.58;1.35;;;;;;;;;;4989207;28;20038;-76
2024/02/25 14:25:01;;;;;;;4.28;2.15;;;;;;;;;;4990132;28;20101;-76
2024/02/25 14:27:26;;;;;;;3.33;1.50;;;;;;;;;;4990179;28;20058;-75
2024/02/25 14:29:53;;;;;;;3.47;1.73;;;;;;;;;;4990097;28;20809;-75
2024/02/25 14:32:18;;;;;;;3.63;1.52;;;;;;;;;;4984199;28;20030;-76
2024/02/25 14:34:43;;;;;;;4.00;1.90;;;;;;;;;;4990309;28;20057;-76